Time;durP1;ratioP1;P1;durP2;ratioP2;P2;SDS_P1;SDS_P2;PMS_P1;PMS_P2;Temp;Humidity;BMP_temperature;BMP_pressure;BME280_temperature;BME280_humidity;BME280_pressure;Samples;Min_cycle;Max_cycle;Signal;HPM_P1;HPM_P2
2022/03/22 00:01:21;;;;;;;;;;;;;;;21.67;37.83;103026.09;5013838;28;4483;-55
2022/03/22 00:03:48;;;;;;;;;;;;;;;21.68;37.82;103027.59;5015137;28;4164;-51
2022/03/22 00:06:14;;;;;;;;;;;;;;;21.67;37.73;103031.88;5007577;28;4120;-51
2022/03/22 00:08:41;;;;;;;;;;;;;;;21.69;37.64;103034.91;5000806;28;4323;-53
2022/03/22 00:11:07;;;;;;;;;;;;;;;21.67;37.69;103043.41;5008094;28;4222;-54
2022/03/22 00:13:34;;;;;;;;;;;;;;;21.69;37.82;103042.78;5009386;28;4180;-50
2022/03/22 00:16:01;;;;;;;;;;;;;;;21.69;37.54;103040.69;5005093;28;4209;-53
2022/03/22 00:18:47;;;;;;;;;;;;;;;21.63;37.71;103031.56;5007145;28;4168;-54
2022/03/22 00:21:14;;;;;;;;;;;;;;;21.67;37.78;103037.63;5005627;28;4052;-54
2022/03/22 00:23:40;;;;;;;;;;;;;;;21.69;37.90;103039.88;5007580;28;4071;-52
2022/03/22 00:26:07;;;;;;;;;;;;;;;21.65;37.81;103028.06;5016838;28;5317;-49
2022/03/22 00:28:33;;;;;;;;;;;;;;;21.68;37.55;103039.13;5018661;28;4204;-52
2022/03/22 00:31:00;;;;;;;;;;;;;;;21.67;37.69;103031.88;5018673;28;4976;-53
2022/03/22 00:33:27;;;;;;;;;;;;;;;21.69;37.68;103040.69;5018200;28;4221;-51
2022/03/22 00:35:53;;;;;;;;;;;;;;;21.70;37.71;103039.28;5016939;28;4067;-51
2022/03/22 00:38:20;;;;;;;;;;;;;;;21.69;37.61;103040.69;5014953;28;4073;-51
2022/03/22 00:40:47;;;;;;;;;;;;;;;21.67;37.62;103037.63;5016338;28;4206;-52
2022/03/22 00:43:13;;;;;;;;;;;;;;;21.67;37.80;103036.84;5017264;28;5374;-52
2022/03/22 00:45:40;;;;;;;;;;;;;;;21.67;37.75;103026.09;5020169;28;4296;-51
2022/03/22 00:48:07;;;;;;;;;;;;;;;21.66;38.01;103033.22;5018321;28;5683;-50
2022/03/22 00:50:35;;;;;;;;;;;;;;;21.64;38.00;103024.41;5013882;28;4238;-51
2022/03/22 00:53:01;;;;;;;;;;;;;;;21.65;38.06;103028.06;5002910;28;4138;-52
2022/03/22 00:55:27;;;;;;;;;;;;;;;21.63;37.94;103020.03;5013010;28;4228;-54
2022/03/22 00:57:54;;;;;;;;;;;;;;;21.65;37.66;103017.28;5017332;28;4060;-49
2022/03/22 01:00:24;;;;;;;;;;;;;;;21.65;37.77;103028.81;5016970;28;5470;-50
2022/03/22 01:02:52;;;;;;;;;;;;;;;21.67;37.61;103028.19;5014467;28;5480;-50
2022/03/22 01:05:19;;;;;;;;;;;;;;;21.66;37.73;103021.69;5017103;28;4058;-51
2022/03/22 01:07:46;;;;;;;;;;;;;;;21.65;37.78;103031.72;5008151;28;4226;-52
2022/03/22 01:10:12;;;;;;;;;;;;;;;21.66;37.63;103026.69;5003001;28;5294;-49
2022/03/22 01:12:39;;;;;;;;;;;;;;;21.65;37.74;103017.28;5005012;28;4137;-48
2022/03/22 01:15:09;;;;;;;;;;;;;;;21.65;37.66;103017.28;5001226;28;4157;-54
2022/03/22 01:17:38;;;;;;;;;;;;;;;21.63;37.92;103027.91;5004321;28;4128;-51
2022/03/22 01:20:06;;;;;;;;;;;;;;;21.63;37.73;103017.13;5004276;28;5081;-51
2022/03/22 01:22:32;;;;;;;;;;;;;;;21.63;37.76;103014.25;5004222;28;4181;-52
2022/03/22 01:25:00;;;;;;;;;;;;;;;21.63;37.78;103005.59;4999244;28;4369;-52
2022/03/22 01:27:27;;;;;;;;;;;;;;;21.63;37.66;102999.84;5004935;28;4144;-50
2022/03/22 01:29:53;;;;;;;;;;;;;;;21.64;37.87;103004.22;5005421;28;5221;-50
2022/03/22 01:32:19;;;;;;;;;;;;;;;21.64;37.74;103001.34;5008197;28;4258;-52
2022/03/22 01:34:46;;;;;;;;;;;;;;;21.65;37.77;103005.75;5005620;28;6379;-53
2022/03/22 01:37:13;;;;;;;;;;;;;;;21.62;37.97;103006.94;5001973;28;4202;-49
2022/03/22 01:39:39;;;;;;;;;;;;;;;21.63;37.76;102999.84;4999895;28;4350;-52
2022/03/22 01:42:06;;;;;;;;;;;;;;;21.63;38.00;103002.72;5004678;28;4215;-51
2022/03/22 01:44:32;;;;;;;;;;;;;;;21.62;37.85;102991.78;5007626;28;4157;-53
2022/03/22 01:47:00;;;;;;;;;;;;;;;21.61;37.91;102987.41;5003044;28;4254;-52
2022/03/22 01:49:26;;;;;;;;;;;;;;;21.63;37.93;102982.53;5004590;28;4221;-51
2022/03/22 01:51:53;;;;;;;;;;;;;;;21.64;37.75;102986.16;5000337;28;4029;-53
2022/03/22 01:54:19;;;;;;;;;;;;;;;21.62;37.97;102983.88;5004712;28;4169;-52
2022/03/22 01:56:45;;;;;;;;;;;;;;;21.63;37.66;102984.66;5001593;28;4235;-52
2022/03/22 01:59:12;;;;;;;;;;;;;;;21.63;37.85;102973.88;5006140;28;5332;-49
2022/03/22 02:11:18;;;;;;;;;;;;;;;21.61;37.61;102965.09;4998720;28;4979;-52
2022/03/22 02:13:50;;;;;;;;;;;;;;;21.62;37.80;102968.72;4985799;28;4418;-50
2022/03/22 02:16:16;;;;;;;;;;;;;;;21.60;37.89;102969.34;4999895;28;4428;-54
2022/03/22 02:18:42;;;;;;;;;;;;;;;21.61;37.73;102970.84;5005039;28;4168;-50
2022/03/22 02:21:09;;;;;;;;;;;;;;;21.62;37.74;102966.59;5004543;28;4214;-54
2022/03/22 02:23:49;;;;;;;;;;;;;;;21.60;37.76;102960.69;5000672;28;4234;-54
2022/03/22 02:26:16;;;;;;;;;;;;;;;21.61;37.85;102962.19;5001301;28;4238;-53
2022/03/22 02:28:43;;;;;;;;;;;;;;;21.61;37.77;102967.97;5002979;28;4282;-53
2022/03/22 02:31:10;;;;;;;;;;;;;;;21.61;37.87;102959.31;4996512;28;4205;-49
2022/03/22 02:33:39;;;;;;;;;;;;;;;21.62;37.89;102965.84;5001098;28;4267;-50
2022/03/22 02:36:06;;;;;;;;;;;;;;;21.61;37.85;102964.31;5003222;28;4195;-50
2022/03/22 02:38:32;;;;;;;;;;;;;;;21.61;37.93;102970.09;5003302;28;5603;-51
2022/03/22 02:40:59;;;;;;;;;;;;;;;21.57;37.81;102959.00;5005865;28;4283;-53
2022/03/22 02:43:25;;;;;;;;;;;;;;;21.60;37.71;102968.56;5003280;28;4180;-51
2022/03/22 02:45:51;;;;;;;;;;;;;;;21.58;37.85;102954.00;5002777;28;4210;-50
2022/03/22 02:48:18;;;;;;;;;;;;;;;21.60;37.71;102963.56;5003880;28;5048;-53
2022/03/22 02:50:44;;;;;;;;;;;;;;;21.60;37.82;102965.69;5004438;28;4344;-53
2022/03/22 02:53:11;;;;;;;;;;;;;;;21.59;37.72;102967.81;5004254;28;5471;-51
2022/03/22 02:55:37;;;;;;;;;;;;;;;21.60;37.79;102963.56;5004335;28;4102;-50
2022/03/22 02:58:03;;;;;;;;;;;;;;;21.60;37.87;102968.56;5014805;28;5315;-53
2022/03/22 03:00:30;;;;;;;;;;;;;;;21.59;37.75;102967.81;5011344;28;4207;-54
2022/03/22 03:02:56;;;;;;;;;;;;;;;21.58;37.79;102965.53;5014484;28;5405;-51
2022/03/22 03:05:23;;;;;;;;;;;;;;;21.57;37.85;102964.78;5013103;28;4238;-51
2022/03/22 03:07:49;;;;;;;;;;;;;;;21.57;37.76;102961.88;5012311;28;4048;-52
2022/03/22 03:10:16;;;;;;;;;;;;;;;21.58;37.61;102972.06;5007519;28;4210;-50
2022/03/22 03:12:42;;;;;;;;;;;;;;;21.58;37.75;102971.28;5016372;28;4152;-52
2022/03/22 03:15:09;;;;;;;;;;;;;;;21.57;37.66;102973.41;5012598;28;4154;-56
2022/03/22 03:17:35;;;;;;;;;;;;;;;21.58;37.70;102977.84;5013748;28;5287;-50
2022/03/22 03:20:02;;;;;;;;;;;;;;;21.58;37.69;102977.84;5011059;28;4319;-51
2022/03/22 03:22:28;;;;;;;;;;;;;;;21.56;37.70;102979.81;5015364;28;4173;-51
2022/03/22 03:24:54;;;;;;;;;;;;;;;21.57;37.90;102982.06;5014492;28;4157;-53
2022/03/22 03:27:22;;;;;;;;;;;;;;;21.56;37.88;102974.78;5013084;28;5282;-51
2022/03/22 03:29:48;;;;;;;;;;;;;;;21.59;37.82;102976.47;5008583;28;4224;-51
2022/03/22 03:32:15;;;;;;;;;;;;;;;21.59;37.80;102978.59;5013548;28;4096;-52
2022/03/22 03:34:41;;;;;;;;;;;;;;;21.56;37.69;102976.94;5007598;28;4286;-51
2022/03/22 03:37:07;;;;;;;;;;;;;;;21.56;37.74;102974.78;5013001;28;4222;-50
2022/03/22 03:39:37;;;;;;;;;;;;;;;21.56;37.78;102974.78;5014754;28;4215;-51
2022/03/22 03:42:04;;;;;;;;;;;;;;;21.58;37.51;102972.06;5014612;28;6315;-52
2022/03/22 03:47:16;;;;;;;;;;;;;;;21.55;37.93;102979.03;5009937;28;4213;-51
2022/03/22 03:49:43;;;;;;;;;;;;;;;21.56;37.82;102980.56;5009990;28;5346;-54
2022/03/22 03:52:14;;;;;;;;;;;;;;;21.59;37.58;102976.47;5007162;28;5328;-51
2022/03/22 03:54:40;;;;;;;;;;;;;;;21.57;37.70;102976.31;5012732;28;4266;-51
2022/03/22 03:57:07;;;;;;;;;;;;;;;21.60;37.58;102983.75;5012975;28;4191;-55
2022/03/22 03:59:34;;;;;;;;;;;;;;;21.58;37.82;102992.25;5016627;28;5475;-51
2022/03/22 04:02:00;;;;;;;;;;;;;;;21.59;37.58;102995.88;5010582;28;4219;-54
2022/03/22 04:04:27;;;;;;;;;;;;;;;21.57;37.58;102987.09;5013831;28;4182;-54
2022/03/22 04:06:53;;;;;;;;;;;;;;;21.59;37.60;102993.75;5014738;28;4213;-54
2022/03/22 04:09:20;;;;;;;;;;;;;;;21.58;37.87;102998.03;5014750;28;4219;-53
2022/03/22 04:11:46;;;;;;;;;;;;;;;21.58;37.71;103000.13;5009695;28;4264;-51
2022/03/22 04:14:12;;;;;;;;;;;;;;;21.57;37.74;102998.63;5014242;28;4157;-53
2022/03/22 04:16:39;;;;;;;;;;;;;;;21.56;37.65;103011.53;5014106;28;5233;-50
2022/03/22 04:19:07;;;;;;;;;;;;;;;21.55;37.76;103004.97;5008559;28;4189;-50
2022/03/22 04:21:34;;;;;;;;;;;;;;;21.55;37.80;103007.88;5004144;28;5257;-53
2022/03/22 04:24:07;;;;;;;;;;;;;;;21.55;37.78;103007.88;5008845;28;4232;-50
2022/03/22 04:26:34;;;;;;;;;;;;;;;21.55;37.72;103004.97;5014287;28;4321;-54
2022/03/22 04:34:32;;;;;;;;;;;;;;;21.55;37.81;103007.88;5006368;28;4204;-53
2022/03/22 04:37:01;;;;;;;;;;;;;;;21.55;37.58;103002.09;5014125;28;4056;-52
2022/03/22 04:39:28;;;;;;;;;;;;;;;21.56;37.50;103009.41;5013645;28;4254;-51
2022/03/22 04:41:56;;;;;;;;;;;;;;;21.54;37.52;103007.09;5012556;28;4073;-51
2022/03/22 04:44:29;;;;;;;;;;;;;;;21.56;37.62;103006.50;5008128;28;5254;-53
2022/03/22 04:46:56;;;;;;;;;;;;;;;21.56;37.40;103015.16;5013036;28;4237;-53
2022/03/22 04:49:23;;;;;;;;;;;;;;;21.57;37.49;103004.38;5012361;28;4260;-50
2022/03/22 04:57:19;;;;;;;;;;;;;;;21.55;37.69;103007.88;5006587;28;4232;-52
2022/03/22 04:59:45;;;;;;;;;;;;;;;21.53;37.66;103013.47;5006299;28;4377;-52
2022/03/22 05:02:12;;;;;;;;;;;;;;;21.54;37.95;103017.88;5005741;28;4219;-55
2022/03/22 05:04:39;;;;;;;;;;;;;;;21.52;37.86;103011.97;5006781;28;5299;-51
2022/03/22 05:07:05;;;;;;;;;;;;;;;21.54;37.60;103010.00;5005026;28;5389;-53
2022/03/22 05:09:32;;;;;;;;;;;;;;;21.54;37.92;103018.66;5001091;28;4227;-52
2022/03/22 05:11:59;;;;;;;;;;;;;;;21.54;38.03;103015.75;5016322;28;4225;-52
2022/03/22 05:14:25;;;;;;;;;;;;;;;21.56;38.18;103014.41;5009544;28;4350;-56
2022/03/22 05:16:51;;;;;;;;;;;;;;;21.55;38.16;103013.63;5017669;28;4020;-57
2022/03/22 05:19:18;;;;;;;;;;;;;;;21.56;38.11;103020.19;5013919;28;4303;-55
2022/03/22 05:21:44;;;;;;;;;;;;;;;21.57;38.51;103021.69;5012744;28;5374;-55
2022/03/22 05:24:11;;;;;;;;;;;;;;;21.56;38.75;103023.81;5013381;28;4180;-54
2022/03/22 05:26:37;;;;;;;;;;;;;;;21.53;38.68;103020.03;5011797;28;4172;-57
2022/03/22 05:29:04;;;;;;;;;;;;;;;21.54;38.42;103020.78;5009974;28;5436;-57
2022/03/22 05:31:31;;;;;;;;;;;;;;;21.52;38.76;103021.38;5001804;28;4160;-55
2022/03/22 05:34:01;;;;;;;;;;;;;;;21.54;38.64;103023.66;5005753;28;4076;-53
2022/03/22 05:36:27;;;;;;;;;;;;;;;21.55;38.61;103028.03;5006774;28;4152;-53
2022/03/22 05:38:53;;;;;;;;;;;;;;;21.56;38.45;103023.06;5014029;28;4211;-52
2022/03/22 05:41:20;;;;;;;;;;;;;;;21.54;38.36;103038.06;5008283;28;4150;-55
2022/03/22 05:43:47;;;;;;;;;;;;;;;21.53;38.44;103027.88;5011433;28;4211;-55
2022/03/22 05:46:17;;;;;;;;;;;;;;;21.55;38.20;103028.03;5006200;28;5425;-54
2022/03/22 05:48:44;;;;;;;;;;;;;;;21.57;38.17;103033.97;5001980;28;4265;-56
2022/03/22 05:51:10;;;;;;;;;;;;;;;21.56;38.06;103037.47;5000783;28;4287;-55
2022/03/22 05:53:36;;;;;;;;;;;;;;;21.59;38.59;103031.25;4996742;28;4440;-59
2022/03/22 05:56:03;;;;;;;;;;;;;;;21.59;38.49;103028.34;5003093;28;5764;-58
2022/03/22 05:58:29;;;;;;;;;;;;;;;21.59;38.45;103042.78;5002777;28;5418;-58
2022/03/22 06:00:56;;;;;;;;;;;;;;;21.59;38.65;103042.78;5010777;28;4274;-59
2022/03/22 06:03:22;;;;;;;;;;;;;;;21.55;37.71;103042.47;5012947;28;5426;-58
2022/03/22 06:05:52;;;;;;;;;;;;;;;21.50;37.65;103041.38;5011392;28;4143;-52
2022/03/22 06:08:19;;;;;;;;;;;;;;;21.50;37.76;103041.38;5011711;28;4251;-57
2022/03/22 06:10:46;;;;;;;;;;;;;;;21.52;37.48;103043.69;5010561;28;4125;-59
2022/03/22 06:13:12;;;;;;;;;;;;;;;21.55;37.41;103048.22;5005486;28;4204;-57
2022/03/22 06:15:39;;;;;;;;;;;;;;;21.56;37.17;103055.53;5011498;28;4021;-57
2022/03/22 06:18:05;;;;;;;;;;;;;;;21.55;37.06;103056.88;5011004;28;4211;-54
2022/03/22 06:20:33;;;;;;;;;;;;;;;21.57;37.05;103053.41;5012418;28;4158;-53
2022/03/22 06:22:59;;;;;;;;;;;;;;;21.54;37.00;103053.25;5013275;28;4323;-53
2022/03/22 06:25:26;;;;;;;;;;;;;;;21.56;36.83;103054.78;5012770;28;4213;-55
2022/03/22 06:27:52;;;;;;;;;;;;;;;21.57;36.52;103056.28;5012773;28;3973;-53
2022/03/22 06:30:19;;;;;;;;;;;;;;;21.57;36.75;103067.81;5004143;28;4266;-55
2022/03/22 06:32:49;;;;;;;;;;;;;;;21.56;36.87;103069.94;5014619;28;4215;-57
2022/03/22 06:35:16;;;;;;;;;;;;;;;21.55;36.52;103065.53;5015664;28;5266;-56
2022/03/22 06:37:43;;;;;;;;;;;;;;;21.54;36.75;103067.66;5015607;28;4045;-58
2022/03/22 06:40:10;;;;;;;;;;;;;;;21.57;36.57;103068.56;5014859;28;4234;-54
2022/03/22 06:42:36;;;;;;;;;;;;;;;21.56;36.60;103058.41;5010995;28;5443;-56
2022/03/22 06:45:03;;;;;;;;;;;;;;;21.55;36.60;103065.53;5007656;28;4165;-56
2022/03/22 06:47:30;;;;;;;;;;;;;;;20.36;30.80;103073.44;5009779;28;4180;-59
2022/03/22 06:53:13;;;;;;;;;;;;;;;19.48;30.29;103068.28;4969176;28;2909;-57
2022/03/22 06:55:39;;;;;;;;;;;;;;;20.22;31.06;103080.91;4973932;28;3018;-57
2022/03/22 06:58:05;;;;;;;;;;;;;;;20.49;32.09;103064.44;4968889;28;2946;-55
2022/03/22 07:00:32;;;;;;;;;;;;;;;20.65;32.66;103070.03;4970005;28;2743;-56
2022/03/22 07:03:00;;;;;;;;;;;;;;;20.75;32.85;103073.72;4968190;28;3078;-55
2022/03/22 07:05:27;;;;;;;;;;;;;;;20.90;33.26;103079.25;4975002;28;2731;-55
2022/03/22 07:07:53;;;;;;;;;;;;;;;20.95;33.18;103062.28;4975884;28;2372;-59
2022/03/22 07:10:19;;;;;;;;;;;;;;;20.99;33.50;103072.00;4977079;28;2486;-56
2022/03/22 07:12:47;;;;;;;;;;;;;;;21.05;33.13;103083.25;4975605;28;2291;-52
2022/03/22 07:15:14;;;;;;;;;;;;;;;20.97;32.65;103079.75;4976117;28;2496;-54
2022/03/22 07:17:40;;;;;;;;;;;;;;;21.09;32.29;103077.81;4974309;28;3003;-50
2022/03/22 07:20:07;;;;;;;;;;;;;;;21.10;32.50;103080.09;4975520;28;1911;-49
2022/03/22 07:22:33;;;;;;;;;;;;;;;21.21;32.31;103078.00;4973839;28;2376;-51
2022/03/22 07:25:00;;;;;;;;;;;;;;;21.23;32.06;103076.03;4977154;28;2645;-51
2022/03/22 07:27:26;;;;;;;;;;;;;;;21.29;32.09;103087.28;4977559;28;3063;-52
2022/03/22 07:29:53;;;;;;;;;;;;;;;21.26;32.01;103080.63;4971955;28;2409;-48
2022/03/22 07:32:19;;;;;;;;;;;;;;;21.27;31.56;103076.34;4971874;28;2736;-54
2022/03/22 07:34:46;;;;;;;;;;;;;;;21.21;30.79;103090.31;4967300;28;2217;-49
2022/03/22 07:37:14;;;;;;;;;;;;;;;21.20;30.25;103088.03;4976263;28;2560;-50
2022/03/22 07:39:40;;;;;;;;;;;;;;;21.27;30.34;103087.13;4975199;28;1972;-51
2022/03/22 07:42:06;;;;;;;;;;;;;;;21.08;29.76;103084.94;4975801;28;2298;-50
2022/03/22 07:44:33;;;;;;;;;;;;;;;21.12;29.54;103083.13;4972938;28;2820;-50
2022/03/22 07:46:59;;;;;;;;;;;;;;;21.24;29.07;103089.09;4977956;28;2119;-53
2022/03/22 07:54:56;;;;;;;;;;;;;;;21.34;28.85;103092.00;4974920;28;3089;-55
2022/03/22 07:57:22;;;;;;;;;;;;;;;21.24;28.60;103089.09;4972934;28;2686;-55
2022/03/22 07:59:49;;;;;;;;;;;;;;;21.17;28.82;103078.47;4975069;28;2487;-57
2022/03/22 08:02:15;;;;;;;;;;;;;;;21.05;28.33;103091.88;4976230;28;2626;-56
2022/03/22 08:04:42;;;;;;;;;;;;;;;20.92;27.95;103095.94;4974942;28;2777;-56
2022/03/22 08:07:09;;;;;;;;;;;;;;;20.81;28.00;103097.25;4974155;28;2939;-61
2022/03/22 08:09:36;;;;;;;;;;;;;;;21.03;28.29;103083.13;4973086;28;2715;-57
2022/03/22 08:12:02;;;;;;;;;;;;;;;21.13;28.93;103081.00;4976900;28;2812;-55
2022/03/22 08:14:28;;;;;;;;;;;;;;;21.12;28.09;103088.91;4974417;28;2166;-56
2022/03/22 08:16:55;;;;;;;;;;;;;;;21.19;28.12;103089.38;4971617;28;2432;-58
2022/03/22 08:19:21;;;;;;;;;;;;;;;21.21;27.69;103089.53;4976928;28;2731;-57
2022/03/22 08:21:48;;;;;;;;;;;;;;;21.02;27.80;103093.09;4969895;28;2732;-57
2022/03/22 08:24:15;;;;;;;;;;;;;;;20.67;27.66;103081.72;4971558;28;2583;-57
2022/03/22 08:26:45;;;;;;;;;;;;;;;20.92;27.68;103090.19;4970561;28;3181;-55
2022/03/22 08:29:12;;;;;;;;;;;;;;;20.77;27.57;103085.38;4972834;28;2936;-57
2022/03/22 08:31:42;;;;;;;;;;;;;;;20.97;27.86;103082.63;4978739;28;2657;-58
2022/03/22 08:34:08;;;;;;;;;;;;;;;21.26;28.05;103092.13;4978965;28;2661;-56
2022/03/22 08:36:34;;;;;;;;;;;;;;;21.39;28.79;103082.31;4977859;28;2956;-55
2022/03/22 08:39:01;;;;;;;;;;;;;;;21.47;28.70;103082.22;4976206;28;2742;-52
2022/03/22 08:41:27;;;;;;;;;;;;;;;21.54;29.28;103081.31;4980457;28;2648;-51
2022/03/22 08:43:54;;;;;;;;;;;;;;;21.56;29.30;103083.59;4975967;28;2660;-54
2022/03/22 08:46:24;;;;;;;;;;;;;;;21.60;29.55;103073.13;4975544;28;2698;-52
2022/03/22 08:48:51;;;;;;;;;;;;;;;21.68;29.74;103067.97;4981010;28;2943;-53
2022/03/22 08:51:19;;;;;;;;;;;;;;;21.67;29.74;103069.34;4979675;28;2456;-52
2022/03/22 08:53:46;;;;;;;;;;;;;;;21.67;30.04;103072.25;4979986;28;2040;-51
2022/03/22 08:56:12;;;;;;;;;;;;;;;21.71;29.98;103072.53;4978177;28;2978;-48
2022/03/22 08:58:39;;;;;;;;;;;;;;;21.71;30.05;103066.00;4983634;28;2668;-56
2022/03/22 09:01:06;;;;;;;;;;;;;;;21.73;30.21;103066.16;4986851;28;2484;-57
2022/03/22 09:03:35;;;;;;;;;;;;;;;21.69;30.56;103069.50;4979250;28;2815;-55
2022/03/22 09:06:07;;;;;;;;;;;;;;;21.73;30.44;103064.03;4980151;28;2891;-56
2022/03/22 09:08:34;;;;;;;;;;;;;;;21.75;30.46;103067.06;4980369;28;2879;-56
2022/03/22 09:11:01;;;;;;;;;;;;;;;21.78;30.62;103067.22;4977386;28;2985;-56
2022/03/22 09:13:33;;;;;;;;;;;;;;;21.79;30.74;103060.09;4983454;28;1546;-56
2022/03/22 09:15:59;;;;;;;;;;;;;;;21.81;30.64;103061.03;4977842;28;2763;-57
2022/03/22 09:18:26;;;;;;;;;;;;;;;21.81;30.96;103057.38;4977898;28;2976;-56
2022/03/22 09:20:52;;;;;;;;;;;;;;;22.00;30.97;103063.13;4975904;28;2863;-57
2022/03/22 09:23:19;;;;;;;;;;;;;;;21.82;30.82;103058.88;4970832;28;2602;-57
2022/03/22 09:25:46;;;;;;;;;;;;;;;21.72;30.32;103051.00;4972662;28;2710;-58
2022/03/22 09:28:13;;;;;;;;;;;;;;;21.66;30.85;103058.41;4977954;28;3094;-58
2022/03/22 09:30:39;;;;;;;;;;;;;;;21.64;30.94;103067.66;4977632;28;2806;-57
2022/03/22 09:33:07;;;;;;;;;;;;;;;21.58;31.03;103055.69;4976046;28;3043;-58
2022/03/22 09:35:34;;;;;;;;;;;;;;;21.59;31.05;103054.31;4979940;28;1586;-60
2022/03/22 09:38:00;;;;;;;;;;;;;;;21.46;29.25;103058.41;4975634;28;2882;-62
2022/03/22 09:40:27;;;;;;;;;;;;;;;21.16;25.75;103050.25;4975857;28;2972;-62
2022/03/22 09:42:55;;;;;;;;;;;;;;;21.02;23.80;103055.66;4961766;28;2869;-62
2022/03/22 09:45:24;;;;;;;;;;;;;;;20.95;23.13;103045.00;4976520;28;3364;-62
2022/03/22 09:47:50;;;;;;;;;;;;;;;20.77;22.40;103047.19;4972181;28;3226;-64
2022/03/22 09:50:17;;;;;;;;;;;;;;;20.74;22.47;103049.16;4972890;28;3131;-60
2022/03/22 09:52:43;;;;;;;;;;;;;;;21.04;24.63;103044.28;4973591;28;3583;-58
2022/03/22 09:55:10;;;;;;;;;;;;;;;21.29;27.06;103038.28;4977230;28;2809;-60
2022/03/22 09:57:36;;;;;;;;;;;;;;;21.43;27.78;103038.66;4978977;28;2776;-54
2022/03/22 10:00:03;;;;;;;;;;;;;;;21.51;27.83;103040.03;4975965;28;2790;-55
2022/03/22 10:02:37;;;;;;;;;;;;;;;21.48;28.20;103037.59;4973673;28;2860;-59
2022/03/22 10:05:03;;;;;;;;;;;;;;;21.20;25.73;103036.16;4973644;28;2725;-58
2022/03/22 10:07:30;;;;;;;;;;;;;;;20.57;23.31;103034.81;4975650;28;2970;-58
2022/03/22 10:09:58;;;;;;;;;;;;;;;20.38;23.08;103030.44;4966792;28;2872;-58
2022/03/22 10:12:25;;;;;;;;;;;;;;;20.31;22.76;103025.56;4974942;28;2755;-57
2022/03/22 10:14:51;;;;;;;;;;;;;;;20.36;22.59;103032.41;4976202;28;2920;-58
2022/03/22 10:17:18;;;;;;;;;;;;;;;20.33;21.91;103028.59;4977602;28;3031;-57
2022/03/22 10:19:48;;;;;;;;;;;;;;;20.32;22.01;103024.22;4976891;28;2797;-61
2022/03/22 10:22:14;;;;;;;;;;;;;;;20.65;22.22;103029.72;4974457;28;3297;-56
2022/03/22 10:24:41;;;;;;;;;;;;;;;20.82;23.49;103014.47;4972555;28;2625;-60
2022/03/22 10:27:26;;;;;;;;;;;;;;;20.89;25.85;103014.38;4973989;28;2600;-60
2022/03/22 10:30:15;;;;;;;;;;;;;;;21.00;26.80;103009.41;4972943;28;2348;-59
2022/03/22 10:32:42;;;;;;;;;;;;;;;21.09;27.44;103014.44;4973681;28;3197;-56
2022/03/22 10:35:10;;;;;;;;;;;;;;;21.16;27.71;103002.00;4975242;28;2770;-60
2022/03/22 10:37:37;;;;;;;;;;;;;;;21.24;27.87;103002.63;4976993;28;2773;-54
2022/03/22 10:40:04;;;;;;;;;;;;;;;21.27;28.07;103001.44;4977837;28;2768;-55
2022/03/22 10:42:31;;;;;;;;;;;;;;;21.32;28.19;103014.03;4973050;28;2829;-54
2022/03/22 10:44:58;;;;;;;;;;;;;;;21.33;28.23;103004.78;4975167;28;2526;-58
2022/03/22 10:47:26;;;;;;;;;;;;;;;21.34;28.62;102997.66;4974665;28;2869;-59
2022/03/22 10:50:02;;;;;;;;;;;;;;;21.37;28.50;102992.03;4975740;28;2856;-59
2022/03/22 10:52:29;;;;;;;;;;;;;;;21.45;28.63;102992.69;4967427;28;2299;-60
2022/03/22 10:54:56;;;;;;;;;;;;;;;21.54;28.58;102983.28;4976416;28;1578;-58
2022/03/22 10:57:28;;;;;;;;;;;;;;;21.52;28.75;102986.03;4978188;28;2768;-53
2022/03/22 10:59:55;;;;;;;;;;;;;;;21.51;29.04;102988.16;4979916;28;1642;-56
2022/03/22 11:02:21;;;;;;;;;;;;;;;21.51;28.96;102987.41;4972232;28;2445;-51
2022/03/22 11:04:48;;;;;;;;;;;;;;;21.52;29.51;102980.25;4967916;28;2353;-56
2022/03/22 11:07:14;;;;;;;;;;;;;;;21.51;29.53;102979.50;4977532;28;2400;-55
2022/03/22 11:09:41;;;;;;;;;;;;;;;21.53;29.42;102973.88;4980123;28;2146;-57
2022/03/22 11:12:08;;;;;;;;;;;;;;;21.55;29.39;102976.16;4977912;28;2130;-51
2022/03/22 11:14:34;;;;;;;;;;;;;;;21.56;29.57;102979.81;4975487;28;2636;-54
2022/03/22 11:17:00;;;;;;;;;;;;;;;21.58;29.66;102971.28;4972550;28;2457;-58
2022/03/22 11:19:27;;;;;;;;;;;;;;;21.59;29.61;102973.56;4972675;28;2417;-55
2022/03/22 11:21:53;;;;;;;;;;;;;;;21.61;29.83;102970.84;4971810;28;2316;-57
2022/03/22 11:24:23;;;;;;;;;;;;;;;21.37;29.09;102966.09;4971031;28;3103;-52
2022/03/22 11:26:51;;;;;;;;;;;;;;;21.48;29.11;102962.66;4966131;28;2531;-60
2022/03/22 11:29:18;;;;;;;;;;;;;;;21.52;29.65;102963.72;4978630;28;2212;-51
2022/03/22 11:34:29;;;;;;;;;;;;;;;21.55;29.69;102970.38;4974762;28;2448;-51
2022/03/22 11:36:57;;;;;;;;;;;;;;;21.54;30.38;102960.22;4975333;28;2633;-58
2022/03/22 11:42:20;;;;;;;;;;;;;;;21.34;27.82;102957.28;4959900;28;2798;-63
2022/03/22 11:44:59;;;;;;;;;;;;;;;21.25;24.45;102952.28;4972079;28;2710;-61
2022/03/22 11:47:36;;;;;;;;;;;;;;;21.20;23.30;102956.22;4974844;28;2777;-58
2022/03/22 11:50:03;;;;;;;;;;;;;;;21.19;22.82;102953.94;4974514;28;2822;-58
2022/03/22 11:52:33;;;;;;;;;;;;;;;21.17;21.63;102950.94;4973641;28;2863;-58
2022/03/22 11:55:00;;;;;;;;;;;;;;;21.17;21.95;102945.91;4969840;28;2796;-58
2022/03/22 11:57:27;;;;;;;;;;;;;;;21.21;21.84;102942.56;4971724;28;3414;-59
2022/03/22 11:59:53;;;;;;;;;;;;;;;21.18;22.61;102941.66;4976231;28;2671;-65
2022/03/22 12:02:21;;;;;;;;;;;;;;;21.16;21.93;102938.63;4973416;28;2819;-68
2022/03/22 12:04:57;;;;;;;;;;;;;;;21.11;21.85;102942.56;4972767;28;2802;-67
2022/03/22 12:07:41;;;;;;;;;;;;;;;21.08;21.80;102932.25;4979042;28;2949;-67
2022/03/22 12:10:08;;;;;;;;;;;;;;;21.02;20.07;102923.13;4980349;28;3126;-67
2022/03/22 12:12:35;;;;;;;;;;;;;;;21.08;20.09;102927.25;4978579;28;2699;-58
2022/03/22 12:15:03;;;;;;;;;;;;;;;21.18;20.61;102930.13;4977603;28;2581;-58
2022/03/22 12:17:29;;;;;;;;;;;;;;;21.25;22.41;102923.47;4977054;28;3042;-58
2022/03/22 12:19:59;;;;;;;;;;;;;;;21.34;24.00;102919.06;4980934;28;2958;-56
2022/03/22 12:22:26;;;;;;;;;;;;;;;21.45;25.03;102912.72;4976978;28;2951;-54
2022/03/22 12:24:52;;;;;;;;;;;;;;;21.52;26.00;102908.19;4975008;28;2754;-58
2022/03/22 12:27:19;;;;;;;;;;;;;;;21.61;26.67;102903.78;4977153;28;2626;-57
2022/03/22 12:29:45;;;;;;;;;;;;;;;21.66;26.83;102900.56;4979316;28;2734;-57
2022/03/22 12:32:12;;;;;;;;;;;;;;;21.68;27.08;102900.72;4975445;28;2743;-58
2022/03/22 12:34:39;;;;;;;;;;;;;;;21.73;27.43;102896.75;4974392;28;2950;-57
2022/03/22 12:37:08;;;;;;;;;;;;;;;21.75;27.52;102888.25;4974331;28;2825;-57
2022/03/22 12:39:37;;;;;;;;;;;;;;;21.78;27.93;102894.94;4978631;28;2974;-58
2022/03/22 12:42:03;;;;;;;;;;;;;;;21.83;28.14;102890.22;4976114;28;2637;-57
2022/03/22 12:44:30;;;;;;;;;;;;;;;21.88;28.15;102883.41;4971946;28;2757;-51
2022/03/22 12:46:56;;;;;;;;;;;;;;;21.89;28.53;102885.66;4976220;28;2797;-57
2022/03/22 12:49:23;;;;;;;;;;;;;;;21.86;28.60;102886.13;4977565;28;2789;-56
2022/03/22 12:51:52;;;;;;;;;;;;;;;21.94;28.64;102883.81;4978722;28;3082;-56
2022/03/22 12:54:18;;;;;;;;;;;;;;;21.96;28.73;102878.94;4974860;28;2613;-56
2022/03/22 12:56:46;;;;;;;;;;;;;;;21.99;28.87;102876.22;4980207;28;2727;-57
2022/03/22 12:59:22;;;;;;;;;;;;;;;22.03;29.08;102877.25;4979923;28;2901;-57
2022/03/22 13:01:58;;;;;;;;;;;;;;;22.00;29.32;102877.75;4977178;28;2743;-58
2022/03/22 13:04:26;;;;;;;;;;;;;;;22.06;29.35;102870.28;4976670;28;2626;-57
2022/03/22 13:06:57;;;;;;;;;;;;;;;22.07;29.30;102868.91;4978258;28;2824;-57
2022/03/22 13:12:12;;;;;;;;;;;;;;;22.12;29.47;102862.03;4976207;28;3122;-56
2022/03/22 13:17:26;;;;;;;;;;;;;;;22.16;29.72;102862.34;4978402;28;2822;-56
2022/03/22 13:19:52;;;;;;;;;;;;;;;22.19;30.03;102860.34;4980068;28;2977;-54
2022/03/22 13:22:20;;;;;;;;;;;;;;;22.17;29.90;102858.09;4975023;28;2568;-55
2022/03/22 13:24:47;;;;;;;;;;;;;;;22.22;29.84;102849.72;4976814;28;2448;-52
2022/03/22 13:27:13;;;;;;;;;;;;;;;22.23;30.10;102846.22;4977345;28;3011;-45
2022/03/22 13:29:40;;;;;;;;;;;;;;;22.29;30.28;102840.91;4975457;28;3430;-45
2022/03/22 13:32:07;;;;;;;;;;;;;;;22.33;30.29;102843.28;4975055;28;2806;-45